Главная страница
METAR-TAF:

METAR-TAF

Аэропорты :

Эсбьерг, Дания

широта: 55-32N, долгота: 008-34E, высота над уровнем моря: 30 м

Текущие метеонаблюдения

Эта сводка был подготовлена 26 минут назад, в 10:20 UTC
Ветер 8 Узел от южный, изменяющийся между юго-восточный и южный-юго-западный
Температура 25°C
Влажность 57%
Давление 1019 hPa
Видимость 10 км и более

METAR: EKEB 061020Z AUTO 18008KT 130V210 9999 BKN110/// 25/16 Q1019

Время: 12:46 (10:46 UTC)

Прогноз

Эта сводка был подготовлена 2 часа и 44 минут назад, в 08:02 UTC
Прогноз действительный с 06-го 09 UTC до 06-го 18 UTC
Ветер 8 Узел от южный
Видимость 10 км и более
Нет облачности ниже 1500 м, и нет кучево-дождевой облачности

TAF: EKEB 060802Z 0609/0618 18008KT CAVOK

Метеонаблюдения и прогнозы для более 4000 аэропортов (сводки METAR и TAF).

Имеющиеся станции представлены на карте желтыми и красными точками.

Чтобы увидеть название станции, наведите на нее мышь.

Затем щелкните, чтобы увидеть метеонаблюдения и метеопрогнозы.

Управление картой: чтобы увеличить масштаб, щелкните зеленые кнопки с черным крестиком; чтобы уменьшить масштаб, щелкните зеленую кнопку с тире; для просмотра соседних карт щелкайте зеленые стрелки.


METAR-TAF: